createdAt,value
2022-08-08T00:00:52.902Z,0.00
2022-08-08T00:10:35.277Z,0.00
2022-08-08T00:20:36.903Z,0.00
2022-08-08T00:30:34.646Z,0.00
2022-08-08T00:41:11.039Z,0.00
2022-08-08T00:50:36.180Z,0.00
2022-08-08T01:00:37.935Z,0.00
2022-08-08T01:10:35.521Z,0.00
2022-08-08T01:20:35.633Z,0.00
2022-08-08T01:30:35.944Z,0.00
2022-08-08T01:40:36.097Z,0.00
2022-08-08T01:50:36.600Z,0.00
2022-08-08T02:00:36.517Z,0.00
2022-08-08T02:10:37.071Z,0.00
2022-08-08T02:21:01.104Z,0.00
2022-08-08T02:30:37.782Z,0.00
2022-08-08T02:40:38.168Z,0.00
2022-08-08T02:50:37.352Z,0.00
2022-08-08T03:00:37.464Z,0.00
2022-08-08T03:10:44.318Z,0.00
2022-08-08T03:20:38.658Z,0.00
2022-08-08T03:30:37.839Z,0.00
2022-08-08T03:40:38.325Z,0.00
2022-08-08T03:50:38.652Z,0.00
2022-08-08T04:00:56.463Z,0.00
2022-08-08T04:10:39.329Z,0.00
2022-08-08T04:20:38.617Z,0.00
2022-08-08T04:30:44.460Z,0.00
2022-08-08T04:40:39.885Z,0.00
2022-08-08T04:50:46.061Z,5.62
2022-08-08T05:00:40.150Z,5.62
2022-08-08T05:10:39.286Z,5.62
2022-08-08T05:20:48.339Z,5.62
2022-08-08T05:30:40.475Z,11.25
2022-08-08T05:40:40.750Z,11.25
2022-08-08T05:50:44.576Z,11.25
2022-08-08T06:00:40.133Z,16.88
2022-08-08T06:10:40.844Z,16.88
2022-08-08T06:20:40.511Z,16.88
2022-08-08T06:30:40.553Z,16.88
2022-08-08T06:40:40.755Z,22.50
2022-08-08T06:50:41.826Z,28.12
2022-08-08T07:00:41.292Z,33.75
2022-08-08T07:10:45.992Z,39.38
2022-08-08T07:20:50.577Z,39.38
2022-08-08T07:30:42.370Z,45.00
2022-08-08T07:40:41.639Z,50.62
2022-08-08T07:50:41.588Z,50.62
2022-08-08T08:00:41.819Z,61.88
2022-08-08T08:10:41.790Z,95.62
2022-08-08T08:20:42.109Z,95.62
2022-08-08T08:30:55.377Z,106.88
2022-08-08T08:40:42.554Z,112.50
2022-08-08T08:50:43.615Z,123.75
2022-08-08T09:01:03.150Z,129.38
2022-08-08T09:10:44.005Z,135.00
2022-08-08T09:22:02.957Z,146.25
2022-08-08T09:30:44.823Z,146.25
2022-08-08T09:40:46.559Z,151.88
2022-08-08T09:50:50.126Z,157.50
2022-08-08T10:00:53.376Z,163.12
2022-08-08T10:10:50.910Z,163.12
2022-08-08T10:20:51.128Z,163.12
2022-08-08T10:31:00.556Z,163.12
2022-08-08T10:40:45.171Z,168.75
2022-08-08T10:50:44.514Z,168.75
2022-08-08T11:00:52.548Z,168.75
2022-08-08T11:10:45.755Z,174.38
2022-08-08T11:20:52.413Z,174.38
2022-08-08T11:30:50.587Z,174.38
2022-08-08T11:40:49.818Z,180.00
2022-08-08T11:50:47.795Z,180.00
2022-08-08T12:00:47.071Z,180.00
2022-08-08T12:10:47.615Z,180.00
2022-08-08T12:20:45.957Z,180.00
2022-08-08T12:30:47.761Z,180.00
2022-08-08T12:40:56.796Z,180.00
2022-08-08T12:50:47.381Z,185.62
2022-08-08T13:00:46.590Z,185.62
2022-08-08T13:10:56.383Z,185.62
2022-08-08T13:20:48.355Z,180.00
2022-08-08T13:30:47.209Z,180.00
2022-08-08T13:40:47.341Z,180.00
2022-08-08T13:50:50.877Z,180.00
2022-08-08T14:00:48.685Z,180.00
2022-08-08T14:10:48.014Z,174.38
2022-08-08T14:20:56.609Z,174.38
2022-08-08T14:30:50.153Z,168.75
2022-08-08T14:40:48.638Z,163.12
2022-08-08T14:50:48.686Z,163.12
2022-08-08T15:00:49.127Z,157.50
2022-08-08T15:10:49.074Z,146.25
2022-08-08T15:20:49.436Z,140.62
2022-08-08T15:30:50.885Z,135.00
2022-08-08T15:40:49.789Z,123.75
2022-08-08T15:50:50.038Z,118.12
2022-08-08T16:00:50.854Z,106.88
2022-08-08T16:13:27.361Z,101.25
2022-08-08T16:20:51.643Z,101.25
2022-08-08T16:30:50.977Z,90.00
2022-08-08T16:40:51.067Z,67.50
2022-08-08T16:50:51.223Z,22.50
2022-08-08T17:00:51.492Z,11.25
2022-08-08T17:10:57.590Z,5.62
2022-08-08T17:20:52.738Z,5.62
2022-08-08T17:30:52.033Z,5.62
2022-08-08T17:40:52.092Z,5.62
2022-08-08T17:50:54.559Z,5.62
2022-08-08T18:00:56.051Z,5.62
2022-08-08T18:10:53.673Z,0.00
2022-08-08T18:20:59.223Z,0.00
2022-08-08T18:30:54.076Z,0.00
2022-08-08T18:40:54.154Z,0.00
2022-08-08T18:50:58.683Z,0.00
2022-08-08T19:00:54.734Z,0.00
2022-08-08T19:10:54.465Z,0.00
2022-08-08T19:20:54.151Z,0.00
2022-08-08T19:31:04.004Z,0.00
2022-08-08T19:40:56.348Z,0.00
2022-08-08T19:50:54.901Z,0.00
2022-08-08T20:00:56.790Z,0.00
2022-08-08T20:10:55.153Z,0.00
2022-08-08T20:20:55.201Z,0.00
2022-08-08T20:30:56.446Z,0.00
2022-08-08T20:40:55.530Z,0.00
2022-08-08T20:50:55.838Z,0.00
2022-08-08T21:00:55.854Z,0.00
2022-08-08T21:10:56.180Z,0.00
2022-08-08T21:20:56.196Z,0.00
2022-08-08T21:30:56.547Z,0.00
2022-08-08T21:40:57.189Z,0.00
2022-08-08T21:50:58.169Z,0.00
2022-08-08T22:00:57.094Z,0.00
2022-08-08T22:10:57.438Z,0.00
2022-08-08T22:20:57.503Z,0.00
2022-08-08T22:30:57.674Z,0.00
2022-08-08T22:40:57.787Z,0.00
2022-08-08T22:50:58.126Z,0.00
2022-08-08T23:01:00.198Z,0.00
2022-08-08T23:11:06.241Z,0.00
2022-08-08T23:20:59.459Z,0.00
2022-08-08T23:30:58.717Z,0.00
2022-08-08T23:40:58.848Z,0.00
2022-08-08T23:50:59.188Z,0.00
